Gray Army Air Field
KGRF : rendu visible

Aérodrome :











RETROUVEZ-NOUS SUR...

 
LOGIN :

S'inscrire | Disclaimer

   EN    FR    IT 

 









Légende :    VFR   VFR Marginal   IFR   IFR Intensif   IFR Très Intensif
Visi : 
Plafond : 
>= 8 km
>= 3000ft
5 à 8 km
1000 à 3000 ft
1500m à 5 km
500 à 1000 ft
800 à 1500m
200 à 500 ft
< 800m
< 200 ft
Symboles :   Orages  Brouillard  Fortes neiges  Fortes précipitations  Vent > 20 kt






- Altitude de l'aérodrome : 300 ft


KGRF - Gray Army Air Field

DERNIER METAR :
  • 250158Z 15003KT 10SM SCT025 SCT035 BKN065 16/16 A2997 RMK AO2A RAB02E22 SLPNO P0008 T01550155 $

METARs EXPIRÉS :
  • 250122Z 09003KT 8SM FEW002 SCT026 SCT032 BKN038 16/16 A2997 RMK AO2A RAB02E22 SLPNO $
  • 250114Z 00000KT 2 1/4SM +RA BR FEW002 SCT031 BKN038 16/16 A2997 RMK AO2A VIS 2 1/4V8 RAB02 SLPNO $
  • 250102Z 08004KT 4SM -RA SCT020 BKN034 BKN150 17/17 A2997 RMK AO2A RAB02 SLPNO $
  • 250053Z 06005KT 10SM SCT020 BKN035 BKN060 BKN160 17/17 A2997 RMK AO2A RAE03 SLPNO $
  • 250013Z 00000KT 10SM BKN014 BKN035 17/17 A2998 RMK AO2A RAE03 SLPNO $
  • 250003Z 29004KT 10SM BKN014 BKN160 17/17 A2998 RMK AO2A RAE03 SLPNO $
  • 242358Z 31005KT 10SM -RA SCT014 BKN027 BKN160 17/17 A2998 RMK AO2A RAB54 SLPNO P0000 60000 T01710169 10173 20166 $

TAF TAF KGRF
Valide du 24 à 21h jusqu'au 26 à 03h UTC


242106Z 2421/2603 20006KT 8000 -RA BKN025 BKN050 QNH2971INS
BECMG 2500/2501 20010G20KT 9999 VCTS BKN022 OVC029CB QNH2994INS
BECMG 2505/2506 19010G20KT 9000 SHRA BKN021 OVC030 QNH2992INS
BECMG 2511/2512 18015G25KT 8000 SHRA OVC028 520003 QNH2978INS
BECMG 2515/2516 19020G30KT 4800 RA SCT014 OVC028 520003 QNH2972INS
TEMPO 2517/2519 20025G35KT 520003
BECMG 2520/2521 21015G20KT 8000 RA SCT028 OVC040 QNH2978INS
BECMG 2601/2602 21009KT 9000 -RA BKN022 OVC030 QNH2986INS TX17/2421Z TN13/2512Z
FIR KZSE / Amérique du Nord



MET'MAP, la Météo Aéronautique d'un coup d'oeil ! - Copyright ORBIFLY Décembre 2007 - Disclaimer

ORBIFLY MET'MAP TEAM :

Programmation & Développement : Alexandra Zaïnal
Sur une idée originale de : Baudouin d'Aumeries
Assistance à la programmation : Marc-Olivier Méhu
Soutien technique & logistique : Manuel Goepfert

Contact : metmap@orbifly.com




SOURCES & CREDITS :

   NOAA       Earth
Advisory